createdAt,value
2022-09-03T00:02:32.689Z,15.87
2022-09-03T00:05:26.128Z,15.92
2022-09-03T00:08:21.414Z,15.95
2022-09-03T00:11:15.110Z,15.86
2022-09-03T00:14:08.879Z,15.77
2022-09-03T00:17:01.771Z,15.68
2022-09-03T00:19:59.249Z,15.68
2022-09-03T00:22:50.668Z,15.55
2022-09-03T00:25:44.272Z,15.58
2022-09-03T00:28:38.312Z,15.40
2022-09-03T00:31:33.078Z,15.52
2022-09-03T00:34:27.944Z,15.58
2022-09-03T00:37:16.724Z,15.58
2022-09-03T00:40:12.294Z,15.67
2022-09-03T00:43:15.101Z,15.65
2022-09-03T00:46:12.708Z,15.66
2022-09-03T00:49:26.200Z,15.63
2022-09-03T00:52:24.732Z,15.70
2022-09-03T00:55:26.376Z,15.60
2022-09-03T00:58:28.156Z,15.61
2022-09-03T01:01:21.252Z,15.43
2022-09-03T01:04:29.428Z,15.47
2022-09-03T01:07:32.862Z,15.38
2022-09-03T01:10:32.406Z,15.43
2022-09-03T01:13:25.108Z,15.34
2022-09-03T01:16:27.807Z,15.36
2022-09-03T01:19:40.283Z,15.35
2022-09-03T01:23:03.088Z,15.18
2022-09-03T01:25:57.627Z,15.27
2022-09-03T01:29:00.941Z,15.16
2022-09-03T01:31:58.995Z,15.21
2022-09-03T01:34:55.798Z,15.31
2022-09-03T01:37:58.651Z,15.44
2022-09-03T01:40:57.655Z,15.41
2022-09-03T01:43:59.254Z,15.48
2022-09-03T01:46:58.533Z,15.44
2022-09-03T01:49:58.050Z,15.43
2022-09-03T01:52:54.363Z,15.35
2022-09-03T01:55:59.683Z,15.25
2022-09-03T01:59:01.948Z,15.32
2022-09-03T02:01:57.325Z,15.39
2022-09-03T02:04:59.342Z,15.33
2022-09-03T02:07:49.531Z,15.36
2022-09-03T02:10:43.081Z,15.11
2022-09-03T02:13:37.102Z,15.07
2022-09-03T02:16:31.397Z,15.05
2022-09-03T02:19:20.083Z,15.15
2022-09-03T02:22:08.497Z,15.10
2022-09-03T02:24:56.848Z,15.07
2022-09-03T02:27:46.190Z,15.00
2022-09-03T02:30:34.748Z,15.03
2022-09-03T02:33:24.531Z,14.96
2022-09-03T02:36:17.815Z,14.82
2022-09-03T02:39:06.988Z,14.80
2022-09-03T02:41:58.514Z,14.75
2022-09-03T02:44:51.309Z,14.70
2022-09-03T02:47:43.847Z,14.77
2022-09-03T02:50:33.465Z,14.68
2022-09-03T02:53:22.505Z,14.56
2022-09-03T02:56:11.343Z,14.64
2022-09-03T02:59:00.344Z,14.58
2022-09-03T03:01:48.695Z,14.46
2022-09-03T03:04:36.899Z,14.31
2022-09-03T03:07:26.959Z,14.42
2022-09-03T03:10:15.279Z,14.49
2022-09-03T03:13:03.890Z,14.44
2022-09-03T03:15:52.214Z,14.41
2022-09-03T03:18:40.648Z,14.38
2022-09-03T03:21:29.006Z,14.36
2022-09-03T03:24:18.683Z,14.32
2022-09-03T03:27:08.348Z,14.27
2022-09-03T03:29:58.164Z,14.32
2022-09-03T03:32:46.467Z,14.23
2022-09-03T03:35:34.803Z,14.28
2022-09-03T03:38:23.182Z,14.33
2022-09-03T03:41:15.084Z,14.35
2022-09-03T03:44:05.772Z,14.31
2022-09-03T03:46:54.091Z,14.41
2022-09-03T03:49:42.372Z,14.39
2022-09-03T03:52:30.723Z,14.41
2022-09-03T03:55:18.997Z,14.45
2022-09-03T03:58:08.944Z,14.50
2022-09-03T04:00:57.268Z,14.29
2022-09-03T04:03:46.201Z,14.34
2022-09-03T04:06:34.576Z,14.37
2022-09-03T04:09:22.934Z,14.16
2022-09-03T04:12:11.183Z,14.21
2022-09-03T04:15:00.821Z,14.09
2022-09-03T04:17:49.253Z,14.29
2022-09-03T04:20:37.858Z,14.19
2022-09-03T04:23:26.140Z,14.51
2022-09-03T04:26:16.061Z,14.48
2022-09-03T04:29:06.324Z,14.61
2022-09-03T04:32:13.530Z,14.63
2022-09-03T04:35:01.809Z,14.67
2022-09-03T04:37:50.260Z,14.73
2022-09-03T04:40:38.716Z,14.63
2022-09-03T04:43:27.028Z,14.69
2022-09-03T04:46:17.665Z,14.93
2022-09-03T04:49:09.502Z,14.93
2022-09-03T04:51:57.839Z,14.85
2022-09-03T04:54:46.170Z,14.87
2022-09-03T04:57:37.993Z,15.05
2022-09-03T05:00:26.481Z,15.12
2022-09-03T05:03:14.737Z,15.25
2022-09-03T05:06:06.434Z,15.34
2022-09-03T05:08:57.346Z,15.28
2022-09-03T05:11:46.850Z,15.29
2022-09-03T05:14:35.287Z,15.23
2022-09-03T05:17:23.588Z,15.36
2022-09-03T05:20:12.207Z,15.26
2022-09-03T05:23:04.645Z,15.27
2022-09-03T05:25:57.549Z,15.35
2022-09-03T05:28:47.122Z,15.51
2022-09-03T05:31:38.101Z,15.64
2022-09-03T05:34:26.540Z,15.72
2022-09-03T05:37:14.829Z,15.84
2022-09-03T05:40:06.172Z,15.82
2022-09-03T05:42:59.638Z,15.74
2022-09-03T05:45:49.213Z,15.70
2022-09-03T05:48:39.224Z,15.81
2022-09-03T05:51:27.511Z,15.80
2022-09-03T05:54:15.768Z,15.79
2022-09-03T05:57:05.699Z,15.90
2022-09-03T05:59:54.112Z,15.84
2022-09-03T06:02:43.120Z,15.89
2022-09-03T06:05:31.528Z,15.77
2022-09-03T06:08:20.258Z,16.07
2022-09-03T06:11:09.520Z,16.19
2022-09-03T06:14:01.487Z,16.35
2022-09-03T06:16:52.937Z,16.65
2022-09-03T06:19:41.579Z,16.55
2022-09-03T06:22:31.368Z,16.74
2022-09-03T06:25:19.747Z,16.91
2022-09-03T06:28:09.033Z,16.89
2022-09-03T06:31:01.655Z,16.81
2022-09-03T06:33:50.300Z,16.96
2022-09-03T06:36:38.591Z,17.26
2022-09-03T06:39:27.221Z,17.38
2022-09-03T06:42:15.533Z,17.37
2022-09-03T06:45:03.818Z,17.58
2022-09-03T06:47:55.225Z,17.60
2022-09-03T06:50:43.651Z,17.62
2022-09-03T06:53:34.227Z,17.85
2022-09-03T06:56:27.230Z,17.90
2022-09-03T06:59:16.539Z,18.22
2022-09-03T07:02:04.930Z,18.09
2022-09-03T07:04:54.815Z,18.26
2022-09-03T07:07:45.202Z,18.28
2022-09-03T07:10:37.516Z,18.27
2022-09-03T07:13:25.890Z,18.27
2022-09-03T07:16:16.561Z,18.68
2022-09-03T07:19:06.152Z,18.69
2022-09-03T07:21:55.907Z,18.98
2022-09-03T07:24:47.033Z,18.57
2022-09-03T07:27:36.267Z,18.75
2022-09-03T07:30:26.510Z,18.69
2022-09-03T07:33:14.839Z,18.73
2022-09-03T07:36:04.621Z,18.96
2022-09-03T07:38:56.659Z,18.55
2022-09-03T07:41:46.373Z,18.91
2022-09-03T07:44:35.059Z,19.04
2022-09-03T07:47:27.018Z,18.96
2022-09-03T07:50:16.337Z,18.87
2022-09-03T07:53:04.765Z,18.99
2022-09-03T07:55:54.527Z,19.31
2022-09-03T07:58:43.721Z,19.44
2022-09-03T08:01:33.852Z,19.06
2022-09-03T08:04:23.082Z,19.26
2022-09-03T08:07:11.466Z,19.14
2022-09-03T08:09:59.839Z,18.90
2022-09-03T08:12:49.600Z,19.36
2022-09-03T08:15:40.489Z,19.56
2022-09-03T08:18:38.150Z,19.97
2022-09-03T08:21:27.739Z,20.04
2022-09-03T08:24:18.198Z,20.01
2022-09-03T08:27:06.632Z,19.89
2022-09-03T08:29:56.358Z,20.05
2022-09-03T08:32:44.720Z,19.87
2022-09-03T08:35:34.414Z,19.97
2022-09-03T08:38:25.223Z,20.14
2022-09-03T08:41:16.496Z,20.07
2022-09-03T08:44:15.503Z,20.13
2022-09-03T08:47:11.366Z,20.36
2022-09-03T08:50:03.502Z,20.48
2022-09-03T08:52:57.746Z,20.54
2022-09-03T08:55:53.371Z,20.63
2022-09-03T08:58:44.028Z,20.89
2022-09-03T09:01:48.248Z,20.82
2022-09-03T09:04:54.414Z,20.95
2022-09-03T09:07:50.987Z,20.95
2022-09-03T09:10:45.595Z,21.00
2022-09-03T09:13:40.793Z,20.32
2022-09-03T09:16:37.582Z,20.62
2022-09-03T09:19:40.299Z,20.93
2022-09-03T09:22:35.107Z,20.91
2022-09-03T09:25:26.351Z,20.55
2022-09-03T09:28:20.274Z,20.69
2022-09-03T09:31:12.664Z,20.98
2022-09-03T09:34:05.151Z,20.91
2022-09-03T09:36:56.093Z,21.00
2022-09-03T09:39:57.958Z,20.89
2022-09-03T09:42:46.355Z,21.14
2022-09-03T09:45:35.600Z,21.02
2022-09-03T09:48:31.717Z,21.12
2022-09-03T09:51:22.580Z,21.21
2022-09-03T09:54:16.569Z,21.33
2022-09-03T09:57:08.662Z,20.78
2022-09-03T10:00:08.933Z,20.72
2022-09-03T10:02:59.982Z,20.98
2022-09-03T10:06:02.271Z,20.93
2022-09-03T10:08:50.695Z,21.18
2022-09-03T10:11:40.385Z,20.78
2022-09-03T10:14:35.793Z,20.50
2022-09-03T10:17:36.650Z,20.68
2022-09-03T10:20:34.222Z,20.39
2022-09-03T10:23:25.724Z,20.69
2022-09-03T10:26:16.866Z,20.63
2022-09-03T10:29:08.789Z,20.93
2022-09-03T10:32:14.045Z,20.67
2022-09-03T10:35:12.733Z,21.07
2022-09-03T10:38:10.968Z,21.10
2022-09-03T10:41:14.457Z,21.16
2022-09-03T10:44:20.179Z,21.49
2022-09-03T10:47:22.255Z,21.30
2022-09-03T10:50:16.513Z,21.36
2022-09-03T10:53:13.405Z,21.33
2022-09-03T10:56:08.929Z,21.64
2022-09-03T10:59:11.862Z,21.21
2022-09-03T11:02:15.364Z,21.23
2022-09-03T11:05:09.389Z,21.05
2022-09-03T11:08:07.013Z,21.24
2022-09-03T11:10:58.477Z,21.62
2022-09-03T11:13:50.683Z,21.59
2022-09-03T11:16:44.316Z,21.53
2022-09-03T11:19:37.508Z,21.83
2022-09-03T11:22:29.916Z,22.10
2022-09-03T11:25:23.960Z,22.10
2022-09-03T11:28:23.187Z,22.66
2022-09-03T11:31:22.580Z,22.92
2022-09-03T11:34:17.829Z,23.13
2022-09-03T11:37:21.103Z,23.54
2022-09-03T11:40:19.540Z,23.08
2022-09-03T11:43:15.921Z,22.74
2022-09-03T11:46:11.989Z,22.32
2022-09-03T11:49:13.507Z,22.66
2022-09-03T11:52:03.531Z,22.61
2022-09-03T11:54:51.862Z,22.49
2022-09-03T11:57:43.907Z,22.69
2022-09-03T12:00:32.370Z,22.48
2022-09-03T12:03:26.703Z,22.70
2022-09-03T12:06:45.698Z,22.80
2022-09-03T12:09:51.790Z,22.85
2022-09-03T12:12:54.961Z,22.65
2022-09-03T12:16:26.870Z,23.16
2022-09-03T12:19:23.725Z,23.04
2022-09-03T12:22:15.163Z,23.16
2022-09-03T12:25:11.938Z,23.06
2022-09-03T12:28:04.039Z,23.51
2022-09-03T12:30:53.619Z,23.03
2022-09-03T12:33:44.839Z,23.37
2022-09-03T12:36:40.126Z,24.26
2022-09-03T12:42:38.702Z,24.42
2022-09-03T12:46:09.990Z,24.49
2022-09-03T12:48:40.451Z,25.07
2022-09-03T12:51:56.744Z,24.86
2022-09-03T12:54:54.284Z,25.20
2022-09-03T12:57:46.663Z,25.06
2022-09-03T13:00:42.969Z,24.97
2022-09-03T13:03:36.846Z,24.23
2022-09-03T13:06:29.193Z,24.59
2022-09-03T13:09:23.841Z,24.60
2022-09-03T13:12:23.477Z,25.11
2022-09-03T13:15:21.059Z,24.98
2022-09-03T13:18:26.031Z,24.98
2022-09-03T13:21:19.993Z,24.80
2022-09-03T13:24:42.937Z,24.72
2022-09-03T13:27:37.870Z,25.04
2022-09-03T13:30:35.801Z,25.42
2022-09-03T13:33:30.937Z,25.42
2022-09-03T13:36:22.755Z,24.96
2022-09-03T13:39:22.440Z,24.66
2022-09-03T13:42:18.301Z,24.70
2022-09-03T13:45:16.180Z,25.09
2022-09-03T13:48:29.206Z,25.06
2022-09-03T13:51:21.998Z,25.09
2022-09-03T13:54:36.276Z,24.83
2022-09-03T13:57:36.923Z,24.91
2022-09-03T14:00:29.788Z,24.56
2022-09-03T14:03:31.627Z,24.64
2022-09-03T14:06:34.824Z,24.60
2022-09-03T14:09:34.101Z,24.55
2022-09-03T14:12:31.790Z,24.26
2022-09-03T14:15:26.070Z,24.00
2022-09-03T14:18:24.176Z,24.17
2022-09-03T14:21:19.756Z,24.23
2022-09-03T14:24:16.491Z,24.38
2022-09-03T14:27:05.732Z,24.52
2022-09-03T14:29:59.430Z,24.51
2022-09-03T14:32:54.150Z,24.25
2022-09-03T14:35:58.287Z,24.41
2022-09-03T14:39:16.565Z,24.47
2022-09-03T14:42:42.840Z,24.54
2022-09-03T14:46:05.713Z,24.56
2022-09-03T14:49:14.627Z,24.19
2022-09-03T14:52:18.181Z,24.40
2022-09-03T14:55:30.369Z,23.93
2022-09-03T14:58:26.219Z,23.98
2022-09-03T15:01:20.511Z,24.03
2022-09-03T15:04:35.115Z,23.86
2022-09-03T15:07:32.215Z,23.80
2022-09-03T15:10:36.436Z,23.69
2022-09-03T15:13:28.642Z,23.59
2022-09-03T15:16:37.067Z,23.62
2022-09-03T15:19:49.909Z,23.49
2022-09-03T15:22:58.477Z,23.50
2022-09-03T15:26:07.727Z,23.31
2022-09-03T15:29:11.508Z,23.21
2022-09-03T15:32:07.998Z,23.03
2022-09-03T15:35:09.633Z,23.35
2022-09-03T15:38:01.479Z,22.84
2022-09-03T15:40:57.191Z,23.34
2022-09-03T15:43:51.574Z,23.22
2022-09-03T15:46:50.585Z,23.13
2022-09-03T15:49:49.788Z,23.05
2022-09-03T15:52:51.790Z,22.61
2022-09-03T15:55:42.162Z,22.88
2022-09-03T15:58:36.937Z,22.86
2022-09-03T16:01:35.679Z,22.85
2022-09-03T16:04:40.184Z,22.70
2022-09-03T16:07:34.409Z,22.69
2022-09-03T16:10:33.899Z,22.08
2022-09-03T16:13:45.788Z,22.20
2022-09-03T16:16:53.461Z,22.22
2022-09-03T16:19:48.757Z,22.16
2022-09-03T16:22:46.182Z,22.00
2022-09-03T16:25:45.467Z,22.05
2022-09-03T16:28:44.638Z,22.00
2022-09-03T16:31:46.991Z,21.92
2022-09-03T16:34:47.421Z,21.89
2022-09-03T16:37:47.627Z,22.05
2022-09-03T16:40:43.232Z,22.10
2022-09-03T16:43:42.320Z,22.26
2022-09-03T16:46:38.589Z,22.33
2022-09-03T16:49:44.183Z,22.19
2022-09-03T16:52:43.059Z,22.62
2022-09-03T16:55:45.279Z,22.84
2022-09-03T16:58:47.726Z,23.01
2022-09-03T17:01:52.485Z,23.07
2022-09-03T17:05:04.311Z,23.08
2022-09-03T17:08:06.226Z,23.01
2022-09-03T17:11:05.501Z,22.65
2022-09-03T17:14:12.338Z,22.85
2022-09-03T17:17:09.262Z,22.65
2022-09-03T17:20:07.171Z,22.65
2022-09-03T17:23:09.790Z,22.54
2022-09-03T17:26:07.242Z,22.39
2022-09-03T17:29:09.689Z,22.31
2022-09-03T17:32:12.031Z,22.21
2022-09-03T17:35:13.863Z,21.86
2022-09-03T17:38:14.131Z,21.90
2022-09-03T17:41:19.405Z,21.84
2022-09-03T17:44:18.755Z,21.71
2022-09-03T17:47:24.486Z,21.57
2022-09-03T17:50:19.796Z,21.52
2022-09-03T17:53:25.108Z,21.47
2022-09-03T17:56:24.087Z,21.34
2022-09-03T17:59:20.472Z,21.16
2022-09-03T18:02:23.804Z,21.18
2022-09-03T18:05:22.290Z,21.15
2022-09-03T18:08:20.698Z,21.01
2022-09-03T18:11:12.436Z,20.86
2022-09-03T18:14:12.712Z,20.72
2022-09-03T18:17:09.490Z,20.48
2022-09-03T18:20:21.388Z,20.14
2022-09-03T18:23:35.911Z,20.23
2022-09-03T18:26:46.719Z,20.03
2022-09-03T18:29:59.646Z,19.94
2022-09-03T18:33:07.222Z,19.87
2022-09-03T18:36:14.092Z,19.77
2022-09-03T18:39:30.991Z,19.70
2022-09-03T18:42:45.535Z,19.62
2022-09-03T18:49:33.011Z,19.19
2022-09-03T18:52:48.422Z,19.16
2022-09-03T18:56:09.954Z,19.13
2022-09-03T18:59:30.087Z,19.11
2022-09-03T19:02:48.144Z,19.03
2022-09-03T19:06:01.811Z,19.04
2022-09-03T19:09:15.947Z,18.82
2022-09-03T19:12:35.507Z,18.83
2022-09-03T19:15:44.322Z,18.64
2022-09-03T19:19:05.527Z,18.77
2022-09-03T19:22:16.653Z,18.69
2022-09-03T19:25:26.835Z,18.55
2022-09-03T19:28:37.767Z,18.43
2022-09-03T19:31:54.985Z,18.38
2022-09-03T19:35:16.919Z,18.13
2022-09-03T19:38:34.403Z,18.20
2022-09-03T19:41:46.353Z,18.30
2022-09-03T19:45:09.299Z,18.21
2022-09-03T19:48:25.407Z,18.23
2022-09-03T19:51:37.653Z,18.05
2022-09-03T19:54:46.707Z,18.05
2022-09-03T19:57:52.488Z,18.11
2022-09-03T20:01:04.312Z,17.96
2022-09-03T20:04:11.057Z,17.94
2022-09-03T20:07:19.415Z,17.86
2022-09-03T20:10:23.513Z,17.79
2022-09-03T20:13:13.712Z,17.66
2022-09-03T20:16:10.699Z,17.67
2022-09-03T20:19:06.367Z,17.64
2022-09-03T20:22:00.889Z,17.58
2022-09-03T20:25:02.513Z,17.43
2022-09-03T20:28:05.947Z,17.33
2022-09-03T20:31:02.753Z,17.47
2022-09-03T20:34:05.872Z,17.46
2022-09-03T20:37:04.884Z,17.46
2022-09-03T20:40:13.883Z,17.42
2022-09-03T20:43:17.835Z,17.27
2022-09-03T20:46:31.160Z,17.23
2022-09-03T20:49:38.181Z,17.21
2022-09-03T20:52:38.857Z,17.16
2022-09-03T20:55:30.335Z,16.92
2022-09-03T20:58:26.301Z,17.01
2022-09-03T21:01:22.785Z,16.94
2022-09-03T21:04:29.426Z,16.97
2022-09-03T21:07:29.319Z,16.95
2022-09-03T21:10:31.939Z,16.84
2022-09-03T21:13:32.842Z,16.85
2022-09-03T21:16:43.794Z,16.86
2022-09-03T21:19:44.722Z,16.69
2022-09-03T21:22:42.424Z,16.82
2022-09-03T21:25:34.642Z,16.72
2022-09-03T21:28:27.044Z,16.77
2022-09-03T21:31:22.197Z,16.68
2022-09-03T21:34:15.102Z,16.70
2022-09-03T21:37:06.976Z,16.64
2022-09-03T21:39:57.471Z,16.66
2022-09-03T21:42:52.355Z,16.56
2022-09-03T21:45:46.040Z,16.54
2022-09-03T21:48:39.452Z,16.54
2022-09-03T21:51:34.578Z,16.50
2022-09-03T21:54:29.027Z,16.46
2022-09-03T21:57:23.753Z,16.46
2022-09-03T22:00:18.939Z,16.45
2022-09-03T22:03:09.518Z,16.37
2022-09-03T22:06:03.487Z,16.27
2022-09-03T22:08:59.920Z,16.29
2022-09-03T22:11:58.205Z,16.08
2022-09-03T22:14:52.811Z,16.05
2022-09-03T22:17:49.355Z,15.95
2022-09-03T22:20:38.206Z,15.98
2022-09-03T22:23:42.979Z,15.89
2022-09-03T22:26:45.736Z,15.88
2022-09-03T22:29:45.257Z,15.86
2022-09-03T22:32:45.673Z,15.74
2022-09-03T22:35:53.958Z,15.85
2022-09-03T22:39:14.922Z,15.82
2022-09-03T22:42:27.789Z,15.82
2022-09-03T22:45:40.719Z,15.76
2022-09-03T22:48:41.981Z,15.84
2022-09-03T22:51:39.479Z,15.82
2022-09-03T22:54:45.719Z,15.97
2022-09-03T22:57:40.583Z,15.95
2022-09-03T23:00:31.969Z,15.98
2022-09-03T23:03:26.564Z,15.87
2022-09-03T23:06:22.162Z,15.90
2022-09-03T23:09:16.664Z,15.88
2022-09-03T23:12:11.138Z,15.90
2022-09-03T23:15:01.375Z,15.91
2022-09-03T23:18:01.595Z,15.85
2022-09-03T23:21:06.041Z,15.81
2022-09-03T23:24:00.766Z,15.72
2022-09-03T23:26:52.568Z,15.60
2022-09-03T23:29:43.753Z,15.57
2022-09-03T23:32:33.709Z,15.47
2022-09-03T23:35:27.784Z,15.33
2022-09-03T23:38:24.326Z,15.35
2022-09-03T23:41:25.322Z,15.41
2022-09-03T23:44:32.487Z,15.44
2022-09-03T23:47:30.027Z,15.42
2022-09-03T23:50:33.181Z,15.15
2022-09-03T23:53:32.864Z,15.27
2022-09-03T23:56:41.231Z,15.26
2022-09-03T23:59:43.593Z,15.22
